^^
Saratoga-Weather Station Historical Data
Daily Summary for July 30, 2021 Units:  Metric    English   Both
Daily Weekly Monthly Yearly Custom
  High: Low: Average:
Temperature: 25.4 °C 11.2 °C 18.6 °C
Dew Point: 16 °C 10.4 °C 13.3 °C
Humidity: 96% 48% 73%
Wind Speed: 22.7km/h 0km/h 2.8km/h
Wind Gust: 22.5km/h - -
Wind- - WSW
Pressure: 1011.9 hPa 1007.5 hPa -
Precipitation: 0.0 mm    
Historical Graphs
 
 
Tabular Data for July 30, 2021
Time Temperature Dew Point Pressure Wind Wind Speed Wind Gust Humidity Rainfall Rate (Hourly) solar
00:01 14.9 °C 12.4 °C 1011.9 hPa Calm     85% 0.0 mm 0 W/m2
00:06 14.8 °C 12.3 °C 1011.9 hPa Calm     85% 0.0 mm 0 W/m2
00:11 14.8 °C 12.3 °C 1011.9 hPa Calm     85% 0.0 mm 0 W/m2
00:16 14.7 °C 12.2 °C 1011.9 hPa Calm     85% 0.0 mm 0 W/m2
00:21 14.7 °C 12.4 °C 1011.9 hPa Calm     86% 0.0 mm 0 W/m2
00:26 14.6 °C 12.3 °C 1011.9 hPa Calm     86% 0.0 mm 0 W/m2
00:43 14.4 °C 12.1 °C 1011.9 hPa Calm     86% 0.0 mm 0 W/m2
00:48 14.3 °C 12.2 °C 1011.9 hPa Calm     87% 0.0 mm 0 W/m2
00:53 14.2 °C 12.1 °C 1011.9 hPa Calm     87% 0.0 mm 0 W/m2
00:58 14.2 °C 12.1 °C 1011.9 hPa Calm     87% 0.0 mm 0 W/m2
01:03 14.1 °C 12.1 °C 1011.9 hPa Calm     88% 0.0 mm 0 W/m2
01:08 14 °C 12 °C 1011.9 hPa Calm     88% 0.0 mm 0 W/m2
01:13 13.9 °C 11.9 °C 1011.9 hPa Calm     88% 0.0 mm 0 W/m2
01:18 13.9 °C 11.9 °C 1011.9 hPa Calm     88% 0.0 mm 0 W/m2
01:23 13.8 °C 11.8 °C 1011.9 hPa Calm     88% 0.0 mm 0 W/m2
01:28 13.8 °C 12 °C 1011.9 hPa Calm     89% 0.0 mm 0 W/m2
01:33 13.7 °C 11.9 °C 1011.9 hPa Calm     89% 0.0 mm 0 W/m2
01:38 13.7 °C 11.9 °C 1011.9 hPa Calm     89% 0.0 mm 0 W/m2
01:43 13.7 °C 11.9 °C 1011.9 hPa Calm     89% 0.0 mm 0 W/m2
01:48 13.6 °C 11.8 °C 1011.5 hPa Calm     89% 0.0 mm 0 W/m2
01:53 13.6 °C 11.8 °C 1011.5 hPa Calm     89% 0.0 mm 0 W/m2
01:58 13.4 °C 11.6 °C 1011.5 hPa SW 1.4 km/h 1.6 km/h 89% 0.0 mm 0 W/m2
02:03 13.3 °C 11.5 °C 1011.5 hPa Calm     89% 0.0 mm 0 W/m2
02:08 13.3 °C 11.7 °C 1011.5 hPa Calm     90% 0.0 mm 0 W/m2
02:13 13.2 °C 11.6 °C 1011.5 hPa Calm     90% 0.0 mm 0 W/m2
02:18 13.2 °C 11.6 °C 1011.5 hPa Calm     90% 0.0 mm 0 W/m2
02:23 13.1 °C 11.5 °C 1011.5 hPa Calm     90% 0.0 mm 0 W/m2
02:28 13.1 °C 11.5 °C 1011.5 hPa Calm     90% 0.0 mm 0 W/m2
02:33 13 °C 11.4 °C 1011.5 hPa Calm     90% 0.0 mm 0 W/m2
02:38 12.9 °C 11.5 °C 1011.5 hPa Calm     91% 0.0 mm 0 W/m2
02:43 12.8 °C 11.4 °C 1011.5 hPa Calm     91% 0.0 mm 0 W/m2
02:48 12.8 °C 11.4 °C 1011.5 hPa Calm     91% 0.0 mm 0 W/m2
02:53 12.8 °C 11.4 °C 1011.5 hPa Calm     91% 0.0 mm 0 W/m2
02:58 12.7 °C 11.3 °C 1011.5 hPa Calm     91% 0.0 mm 0 W/m2
03:03 12.7 °C 11.3 °C 1011.5 hPa Calm     91% 0.0 mm 0 W/m2
03:08 12.6 °C 11.2 °C 1011.5 hPa Calm     91% 0.0 mm 0 W/m2
03:13 12.6 °C 11.2 °C 1011.5 hPa Calm     91% 0.0 mm 0 W/m2
03:18 12.4 °C 11.1 °C 1011.5 hPa Calm     92% 0.0 mm 0 W/m2
03:23 12.4 °C 11.1 °C 1011.5 hPa Calm     92% 0.0 mm 0 W/m2
03:28 12.3 °C 11 °C 1011.5 hPa Calm     92% 0.0 mm 0 W/m2
03:34 12.3 °C 11 °C 1011.5 hPa Calm     92% 0.0 mm 0 W/m2
03:39 12.2 °C 10.9 °C 1011.5 hPa Calm     92% 0.0 mm 0 W/m2
03:44 12.2 °C 11.1 °C 1011.2 hPa Calm     93% 0.0 mm 0 W/m2
03:49 12.2 °C 11.1 °C 1011.2 hPa Calm     93% 0.0 mm 0 W/m2
03:54 12.1 °C 11 °C 1011.2 hPa Calm     93% 0.0 mm 0 W/m2
03:59 12.1 °C 11 °C 1011.2 hPa Calm     93% 0.0 mm 0 W/m2
04:04 12 °C 10.9 °C 1011.2 hPa Calm     93% 0.0 mm 0 W/m2
04:09 11.9 °C 10.8 °C 1011.2 hPa Calm     93% 0.0 mm 0 W/m2
04:14 11.9 °C 10.8 °C 1011.2 hPa Calm     93% 0.0 mm 0 W/m2
04:19 11.8 °C 10.7 °C 1011.2 hPa Calm     93% 0.0 mm 0 W/m2
04:24 11.8 °C 10.7 °C 1011.2 hPa Calm     93% 0.0 mm 0 W/m2
04:29 11.7 °C 10.6 °C 1011.2 hPa Calm     93% 0.0 mm 0 W/m2
04:34 11.7 °C 10.6 °C 1011.2 hPa Calm     93% 0.0 mm 0 W/m2
04:39 11.7 °C 10.8 °C 1011.2 hPa Calm     94% 0.0 mm 0 W/m2
04:44 11.7 °C 10.8 °C 1011.2 hPa Calm     94% 0.0 mm 0 W/m2
04:49 11.7 °C 10.8 °C 1011.2 hPa Calm     94% 0.0 mm 0 W/m2
04:54 11.7 °C 10.8 °C 1011.2 hPa Calm     94% 0.0 mm 0 W/m2
04:59 11.7 °C 10.8 °C 1011.2 hPa Calm     94% 0.0 mm 0 W/m2
05:04 11.7 °C 10.8 °C 1011.2 hPa Calm     94% 0.0 mm 0 W/m2
05:09 11.6 °C 10.7 °C 1011.2 hPa Calm     94% 0.0 mm 0 W/m2
05:14 11.6 °C 10.7 °C 1011.2 hPa Calm     94% 0.0 mm 0 W/m2
05:19 11.5 °C 10.6 °C 1010.8 hPa Calm     94% 0.0 mm 0 W/m2
05:24 11.4 °C 10.5 °C 1010.8 hPa Calm     94% 0.0 mm 0 W/m2
05:29 11.4 °C 10.5 °C 1010.8 hPa Calm     94% 0.0 mm 0 W/m2
05:34 11.4 °C 10.5 °C 1010.8 hPa Calm     94% 0.0 mm 0 W/m2
05:39 11.3 °C 10.4 °C 1010.8 hPa Calm     94% 0.0 mm 0 W/m2
05:44 11.3 °C 10.4 °C 1010.8 hPa Calm     94% 0.0 mm 0 W/m2
05:49 11.3 °C 10.5 °C 1010.8 hPa Calm     95% 0.0 mm 0 W/m2
05:54 11.3 °C 10.5 °C 1010.8 hPa Calm     95% 0.0 mm 0 W/m2
05:59 11.3 °C 10.5 °C 1010.8 hPa Calm     95% 0.0 mm 0 W/m2
06:04 11.3 °C 10.5 °C 1010.8 hPa Calm     95% 0.0 mm 0 W/m2
06:24 11.3 °C 10.5 °C 1010.8 hPa Calm     95% 0.0 mm 12 W/m2
06:29 11.3 °C 10.5 °C 1010.8 hPa Calm     95% 0.0 mm 14 W/m2
06:34 11.3 °C 10.5 °C 1010.8 hPa Calm     95% 0.0 mm 16 W/m2
06:39 11.2 °C 10.4 °C 1010.8 hPa Calm     95% 0.0 mm 18 W/m2
06:44 11.3 °C 10.5 °C 1010.8 hPa Calm     95% 0.0 mm 18 W/m2
07:01 11.3 °C 10.5 °C 1010.8 hPa Calm     95% 0.0 mm 25 W/m2
07:06 11.4 °C 10.6 °C 1010.8 hPa Calm     95% 0.0 mm 25 W/m2
07:11 11.4 °C 10.6 °C 1010.8 hPa Calm     95% 0.0 mm 26 W/m2
07:16 11.4 °C 10.6 °C 1010.8 hPa Calm     95% 0.0 mm 26 W/m2
07:21 11.6 °C 11 °C 1010.8 hPa Calm     96% 0.0 mm 30 W/m2
07:26 11.7 °C 11.1 °C 1010.8 hPa Calm     96% 0.0 mm 32 W/m2
07:31 11.8 °C 11.2 °C 1010.5 hPa SW 1.4 km/h 1.6 km/h 96% 0.0 mm 33 W/m2
07:36 12.1 °C 11.5 °C 1010.5 hPa Calm   1.6 km/h 96% 0.0 mm 39 W/m2
07:41 12.2 °C 11.6 °C 1010.5 hPa Calm     96% 0.0 mm 40 W/m2
07:46 12.3 °C 11.7 °C 1010.8 hPa Calm     96% 0.0 mm 46 W/m2
07:51 12.5 °C 11.9 °C 1010.5 hPa Calm     96% 0.0 mm 49 W/m2
07:56 12.7 °C 12.1 °C 1010.5 hPa Calm     96% 0.0 mm 53 W/m2
08:01 12.8 °C 12 °C 1010.8 hPa Calm     95% 0.0 mm 62 W/m2
08:06 13.1 °C 12.3 °C 1010.8 hPa Calm     95% 0.0 mm 49 W/m2
08:11 13.4 °C 12.6 °C 1010.5 hPa Calm     95% 0.0 mm 40 W/m2
08:16 14 °C 13 °C 1010.5 hPa Calm     94% 0.0 mm 44 W/m2
08:21 14.4 °C 13.3 °C 1010.5 hPa Calm     93% 0.0 mm 47 W/m2
08:26 14.9 °C 13.3 °C 1010.5 hPa Calm   3.2 km/h 90% 0.0 mm 47 W/m2
08:31 15.5 °C 13.5 °C 1010.5 hPa Calm   1.6 km/h 88% 0.0 mm 47 W/m2
08:36 16.1 °C 13.9 °C 1010.5 hPa Calm   4.8 km/h 87% 0.0 mm 49 W/m2
08:41 16.6 °C 13.7 °C 1010.5 hPa Calm   4.8 km/h 83% 0.0 mm 51 W/m2
08:46 16.7 °C 13.8 °C 1010.5 hPa ENE 3.2 km/h 3.2 km/h 83% 0.0 mm 53 W/m2
08:51 16.8 °C 13.9 °C 1010.5 hPa NE 1.4 km/h 3.2 km/h 83% 0.0 mm 56 W/m2
08:56 17 °C 13.9 °C 1010.5 hPa ENE 1.4 km/h 3.2 km/h 82% 0.0 mm 155 W/m2
09:01 17.2 °C 13.9 °C 1010.5 hPa ENE 1.4 km/h 4.8 km/h 81% 0.0 mm 323 W/m2
09:06 17.3 °C 14 °C 1010.5 hPa NE 1.4 km/h 3.2 km/h 81% 0.0 mm 364 W/m2
09:12 17.5 °C 14.2 °C 1010.5 hPa NE 1.4 km/h 3.2 km/h 81% 0.0 mm 380 W/m2
09:17 17.7 °C 14.4 °C 1010.5 hPa East 1.4 km/h 4.8 km/h 81% 0.0 mm 399 W/m2
09:22 17.9 °C 14.4 °C 1010.5 hPa NNE 1.4 km/h 3.2 km/h 80% 0.0 mm 413 W/m2
09:41 18.6 °C 14.9 °C 1010.2 hPa Calm   4.8 km/h 79% 0.0 mm 429 W/m2
09:46 18.8 °C 14.9 °C 1010.2 hPa ESE 3.2 km/h 4.8 km/h 78% 0.0 mm 501 W/m2
09:51 19 °C 14.9 °C 1010.2 hPa ENE 3.2 km/h 4.8 km/h 77% 0.0 mm 564 W/m2
09:56 19.2 °C 14.9 °C 1010.2 hPa ENE 4.7 km/h 8 km/h 76% 0.0 mm 248 W/m2
10:01 19.3 °C 15 °C 1010.2 hPa East 1.4 km/h 4.8 km/h 76% 0.0 mm 320 W/m2
10:06 19.7 °C 15.3 °C 1010.2 hPa ESE 1.4 km/h 8 km/h 76% 0.0 mm 413 W/m2
10:11 20 °C 15.2 °C 1010.2 hPa NNE 3.2 km/h 6.4 km/h 74% 0.0 mm 550 W/m2
10:16 20.4 °C 15.6 °C 1010.2 hPa East 3.2 km/h 3.2 km/h 74% 0.0 mm 612 W/m2
10:21 20.7 °C 15.7 °C 1010.2 hPa East 6.4 km/h 8 km/h 73% 0.0 mm 527 W/m2
10:26 21 °C 16 °C 1010.2 hPa NE 3.2 km/h 4.8 km/h 73% 0.0 mm 645 W/m2
10:31 21.2 °C 15.9 °C 1010.2 hPa NNW 4.7 km/h 8 km/h 72% 0.0 mm 643 W/m2
10:36 21.5 °C 15.8 °C 1010.2 hPa WNW 6.4 km/h 9.7 km/h 70% 0.0 mm 684 W/m2
10:41 21.7 °C 15.3 °C 1010.2 hPa South 1.4 km/h 4.8 km/h 67% 0.0 mm 691 W/m2
10:46 22.1 °C 15.7 °C 1010.2 hPa NW 4.7 km/h 6.4 km/h 67% 0.0 mm 642 W/m2
10:51 22.2 °C 15.1 °C 1009.8 hPa NW 3.2 km/h 6.4 km/h 64% 0.0 mm 722 W/m2
10:56 22.3 °C 14.9 °C 1009.8 hPa Calm   4.8 km/h 63% 0.0 mm 800 W/m2
11:01 22.3 °C 14.7 °C 1009.8 hPa NW 1.4 km/h 6.4 km/h 62% 0.0 mm 341 W/m2
11:06 22.3 °C 14.2 °C 1009.8 hPa NNW 1.4 km/h 11.3 km/h 60% 0.0 mm 323 W/m2
11:11 22.2 °C 14.6 °C 1009.8 hPa NE 4.7 km/h 9.7 km/h 62% 0.0 mm 679 W/m2
11:16 22.3 °C 14.7 °C 1009.8 hPa West 11.1 km/h 11.3 km/h 62% 0.0 mm 142 W/m2
11:21 22.4 °C 14.5 °C 1009.8 hPa SSW 9.7 km/h 12.9 km/h 61% 0.0 mm 766 W/m2
11:26 22.6 °C 14.9 °C 1009.5 hPa ESE 1.4 km/h 3.2 km/h 62% 0.0 mm 795 W/m2
11:31 23 °C 14.8 °C 1009.5 hPa WNW 4.7 km/h 8 km/h 60% 0.0 mm 868 W/m2
11:36 23.4 °C 15.2 °C 1009.5 hPa NNW 4.7 km/h 11.3 km/h 60% 0.0 mm 895 W/m2
11:41 23.6 °C 15.1 °C 1009.5 hPa WNW 1.4 km/h 14.5 km/h 59% 0.0 mm 916 W/m2
11:46 23.7 °C 14.7 °C 1009.5 hPa Calm   6.4 km/h 57% 0.0 mm 916 W/m2
11:51 23.3 °C 14.8 °C 1009.5 hPa NNW 6.4 km/h 14.5 km/h 59% 0.0 mm 290 W/m2
11:56 23.1 °C 14.6 °C 1009.5 hPa NNW 6.4 km/h 11.3 km/h 59% 0.0 mm 963 W/m2
12:01 22.8 °C 14.6 °C 1009.5 hPa NW 13 km/h 17.7 km/h 60% 0.0 mm 216 W/m2
12:06 22.7 °C 14.8 °C 1009.5 hPa NW 1.4 km/h 4.8 km/h 61% 0.0 mm 865 W/m2
12:12 23.1 °C 14.4 °C 1009.5 hPa WSW 1.4 km/h 8 km/h 58% 0.0 mm 807 W/m2
12:17 23.3 °C 14.6 °C 1009.1 hPa WNW 3.2 km/h 8 km/h 58% 0.0 mm 812 W/m2
12:22 23.6 °C 14.6 °C 1009.1 hPa NNW 1.4 km/h 6.4 km/h 57% 0.0 mm 849 W/m2
12:42 23.9 °C 15.1 °C 1009.1 hPa WNW 3.2 km/h 11.3 km/h 58% 0.0 mm 912 W/m2
12:47 24 °C 14.7 °C 1009.1 hPa WSW 6.4 km/h 17.7 km/h 56% 0.0 mm 874 W/m2
12:52 24.1 °C 15 °C 1009.1 hPa NW 22.7 km/h 22.5 km/h 57% 0.0 mm 904 W/m2
12:57 23.9 °C 14.6 °C 1008.8 hPa NW 1.4 km/h 11.3 km/h 56% 0.0 mm 984 W/m2
13:02 24.1 °C 15 °C 1008.8 hPa WNW 3.2 km/h 16.1 km/h 57% 0.0 mm 970 W/m2
13:07 24.3 °C 15 °C 1008.8 hPa West 9.7 km/h 17.7 km/h 56% 0.0 mm 954 W/m2
13:12 24.3 °C 14.7 °C 1008.8 hPa WNW 4.7 km/h 9.7 km/h 55% 0.0 mm 1041 W/m2
13:17 24.6 °C 14.7 °C 1008.8 hPa NW 3.2 km/h 20.9 km/h 54% 0.0 mm 949 W/m2
13:22 24.3 °C 14.4 °C 1008.8 hPa NW 4.7 km/h 16.1 km/h 54% 0.0 mm 272 W/m2
13:27 24.2 °C 14.6 °C 1008.8 hPa NE 6.4 km/h 14.5 km/h 55% 0.0 mm 937 W/m2
13:32 24.3 °C 14.7 °C 1008.8 hPa West 6.4 km/h 16.1 km/h 55% 0.0 mm 942 W/m2
13:37 24.1 °C 14.5 °C 1008.8 hPa NW 6.4 km/h 8 km/h 55% 0.0 mm 962 W/m2
13:42 24.2 °C 14.6 °C 1008.8 hPa WNW 4.7 km/h 14.5 km/h 55% 0.0 mm 1114 W/m2
13:47 24.3 °C 14.7 °C 1008.8 hPa NNW 3.2 km/h 11.3 km/h 55% 0.0 mm 1076 W/m2
13:52 24.4 °C 14.2 °C 1008.5 hPa ENE 1.4 km/h 14.5 km/h 53% 0.0 mm 984 W/m2
13:57 24.3 °C 15 °C 1008.8 hPa NNW 6.4 km/h 12.9 km/h 56% 0.0 mm 854 W/m2
14:02 24.4 °C 14.8 °C 1008.8 hPa WNW 4.7 km/h 14.5 km/h 55% 0.0 mm 933 W/m2
14:07 24.3 °C 14.7 °C 1008.5 hPa West 3.2 km/h 14.5 km/h 55% 0.0 mm 232 W/m2
14:12 24.4 °C 14.2 °C 1008.5 hPa ESE 3.2 km/h 16.1 km/h 53% 0.0 mm 946 W/m2
14:17 24.6 °C 14.7 °C 1008.5 hPa WSW 1.4 km/h 9.7 km/h 54% 0.0 mm 928 W/m2
14:22 24.7 °C 14.8 °C 1008.5 hPa East 14.3 km/h 16.1 km/h 54% 0.0 mm 946 W/m2
14:27 24.9 °C 15.5 °C 1008.5 hPa WNW 4.7 km/h 4.8 km/h 56% 0.0 mm 891 W/m2
14:32 24.9 °C 15 °C 1008.5 hPa NW 16.1 km/h 16.1 km/h 54% 0.0 mm 891 W/m2
14:37 24.8 °C 14.6 °C 1008.5 hPa West 4.7 km/h 9.7 km/h 53% 0.0 mm 193 W/m2
14:42 24.9 °C 15 °C 1008.5 hPa NW 4.7 km/h 12.9 km/h 54% 0.0 mm 958 W/m2
14:47 24.9 °C 15.2 °C 1008.5 hPa NW 4.7 km/h 12.9 km/h 55% 0.0 mm 884 W/m2
14:52 25 °C 15.6 °C 1008.1 hPa NE 3.2 km/h 11.3 km/h 56% 0.0 mm 882 W/m2
14:57 24.9 °C 14.7 °C 1008.1 hPa West 6.4 km/h 12.9 km/h 53% 0.0 mm 886 W/m2
15:02 25.1 °C 14.8 °C 1008.5 hPa NW 16.3 km/h 22.5 km/h 53% 0.0 mm 896 W/m2
15:07 24.7 °C 14.8 °C 1008.1 hPa NNW 3.2 km/h 12.9 km/h 54% 0.0 mm 751 W/m2
15:13 24.8 °C 14.6 °C 1007.8 hPa WSW 3.2 km/h 22.5 km/h 53% 0.0 mm 853 W/m2
15:18 24.9 °C 14.7 °C 1007.8 hPa NNE 3.2 km/h 6.4 km/h 53% 0.0 mm 169 W/m2
15:23 24.7 °C 14.8 °C 1007.8 hPa West 4.7 km/h 14.5 km/h 54% 0.0 mm 192 W/m2
15:28 24.6 °C 15.2 °C 1007.8 hPa WNW 14.3 km/h 14.5 km/h 56% 0.0 mm 889 W/m2
15:33 24.8 °C 15.4 °C 1007.8 hPa West 14.3 km/h 16.1 km/h 56% 0.0 mm 874 W/m2
15:38 24.8 °C 15.1 °C 1007.8 hPa West 4.7 km/h 12.9 km/h 55% 0.0 mm 758 W/m2
15:54 25.2 °C 14.9 °C 1007.5 hPa SSE 6.4 km/h 6.4 km/h 53% 0.0 mm 847 W/m2
15:59 25.3 °C 14.4 °C 1007.5 hPa NNE 6.4 km/h 16.1 km/h 51% 0.0 mm 796 W/m2
16:04 25.4 °C 13.9 °C 1007.5 hPa West 9.7 km/h 16.1 km/h 49% 0.0 mm 867 W/m2
16:09 25.2 °C 14.3 °C 1007.5 hPa ESE 9.7 km/h 9.7 km/h 51% 0.0 mm 279 W/m2
16:14 25.2 °C 13.4 °C 1007.5 hPa ENE 4.7 km/h 9.7 km/h 48% 0.0 mm 425 W/m2
16:19 25.3 °C 13.5 °C 1007.5 hPa West 13 km/h 19.3 km/h 48% 0.0 mm 448 W/m2
16:24 25.1 °C 13.9 °C 1007.5 hPa WNW 6.4 km/h 11.3 km/h 50% 0.0 mm 288 W/m2
16:29 24.7 °C 13.9 °C 1007.5 hPa WSW 3.2 km/h 19.3 km/h 51% 0.0 mm 229 W/m2
16:34 24.4 °C 13.9 °C 1007.5 hPa West 9.7 km/h 17.7 km/h 52% 0.0 mm 207 W/m2
16:39 24.1 °C 13.9 °C 1007.5 hPa West 9.7 km/h 16.1 km/h 53% 0.0 mm 195 W/m2
16:44 23.9 °C 14.3 °C 1007.8 hPa West 14.3 km/h 14.5 km/h 55% 0.0 mm 248 W/m2
16:49 23.8 °C 14.8 °C 1007.8 hPa NW 4.7 km/h 9.7 km/h 57% 0.0 mm 278 W/m2
16:54 23.8 °C 15 °C 1007.8 hPa SW 6.4 km/h 11.3 km/h 58% 0.0 mm 262 W/m2
16:59 23.8 °C 15.3 °C 1007.8 hPa WSW 3.2 km/h 11.3 km/h 59% 0.0 mm 250 W/m2
17:04 23.8 °C 15 °C 1007.8 hPa NNW 6.4 km/h 14.5 km/h 58% 0.0 mm 250 W/m2
17:09 23.7 °C 14.9 °C 1007.8 hPa SW 7.9 km/h 16.1 km/h 58% 0.0 mm 246 W/m2
17:14 23.6 °C 14.9 °C 1007.8 hPa West 4.7 km/h 19.3 km/h 58% 0.0 mm 276 W/m2
17:19 23.5 °C 15 °C 1007.8 hPa NW 7.9 km/h 12.9 km/h 59% 0.0 mm 269 W/m2
17:24 23.6 °C 15.1 °C 1007.8 hPa WNW 4.7 km/h 9.7 km/h 59% 0.0 mm 315 W/m2
17:29 23.7 °C 14.9 °C 1007.8 hPa West 3.2 km/h 8 km/h 58% 0.0 mm 274 W/m2
17:34 23.7 °C 15.2 °C 1007.8 hPa NW 4.7 km/h 6.4 km/h 59% 0.0 mm 294 W/m2
17:39 23.6 °C 14.9 °C 1007.8 hPa NW 6.4 km/h 16.1 km/h 58% 0.0 mm 199 W/m2
17:44 23.4 °C 14.9 °C 1007.8 hPa West 11.1 km/h 11.3 km/h 59% 0.0 mm 200 W/m2
18:04 23.7 °C 15.2 °C 1007.8 hPa WNW 6.4 km/h 9.7 km/h 59% 0.0 mm 239 W/m2
18:09 23.9 °C 15.4 °C 1007.8 hPa West 9.7 km/h 17.7 km/h 59% 0.0 mm 243 W/m2
18:14 24 °C 15.2 °C 1007.8 hPa West 11.1 km/h 17.7 km/h 58% 0.0 mm 373 W/m2
18:19 23.8 °C 15 °C 1007.8 hPa NW 6.4 km/h 14.5 km/h 58% 0.0 mm 120 W/m2
18:24 23.4 °C 14.9 °C 1007.8 hPa WNW 7.9 km/h 16.1 km/h 59% 0.0 mm 118 W/m2
18:29 23.2 °C 15.3 °C 1007.8 hPa WNW 6.4 km/h 9.7 km/h 61% 0.0 mm 137 W/m2
18:34 23.3 °C 15.1 °C 1007.8 hPa NNW 6.4 km/h 8 km/h 60% 0.0 mm 436 W/m2
18:39 23.4 °C 15.4 °C 1007.8 hPa NW 14.3 km/h 14.5 km/h 61% 0.0 mm 90 W/m2
18:44 23.3 °C 15.1 °C 1007.8 hPa NNW 1.4 km/h 12.9 km/h 60% 0.0 mm 107 W/m2
18:49 23.3 °C 15.4 °C 1007.8 hPa West 4.7 km/h 11.3 km/h 61% 0.0 mm 116 W/m2
18:54 23.1 °C 15.4 °C 1007.8 hPa NNW 6.4 km/h 16.1 km/h 62% 0.0 mm 83 W/m2
18:59 22.9 °C 15.2 °C 1008.1 hPa SW 6.4 km/h 12.9 km/h 62% 0.0 mm 97 W/m2
19:15 23.1 °C 15.4 °C 1007.8 hPa NW 4.7 km/h 9.7 km/h 62% 0.0 mm 269 W/m2
19:20 23.3 °C 15.6 °C 1007.8 hPa West 4.7 km/h 6.4 km/h 62% 0.0 mm 204 W/m2
19:25 23.5 °C 15.5 °C 1007.8 hPa North 1.4 km/h 9.7 km/h 61% 0.0 mm 192 W/m2
19:30 23.5 °C 15.5 °C 1007.8 hPa SW 4.7 km/h 12.9 km/h 61% 0.0 mm 35 W/m2
19:35 22.9 °C 15.2 °C 1007.5 hPa WNW 7.9 km/h 14.5 km/h 62% 0.0 mm 49 W/m2
19:40 22.8 °C 15.4 °C 1007.8 hPa NNW 3.2 km/h 8 km/h 63% 0.0 mm 220 W/m2
19:46 22.7 °C 15.3 °C 1007.8 hPa NW 1.4 km/h 14.5 km/h 63% 0.0 mm 54 W/m2
19:51 22.7 °C 15 °C 1007.8 hPa NNW 1.4 km/h 14.5 km/h 62% 0.0 mm 197 W/m2
19:56 22.7 °C 15 °C 1007.8 hPa SSW 4.7 km/h 9.7 km/h 62% 0.0 mm 169 W/m2
20:01 22.8 °C 14.9 °C 1007.8 hPa WNW 1.4 km/h 9.7 km/h 61% 0.0 mm 142 W/m2
20:06 22.8 °C 14.9 °C 1007.8 hPa West 1.4 km/h 8 km/h 61% 0.0 mm 95 W/m2
20:11 22.6 °C 14.9 °C 1007.8 hPa NW 3.2 km/h 6.4 km/h 62% 0.0 mm 23 W/m2
20:16 22.4 °C 15 °C 1007.8 hPa NW 4.7 km/h 4.8 km/h 63% 0.0 mm 19 W/m2
20:21 22.1 °C 15 °C 1007.8 hPa WNW 1.4 km/h 3.2 km/h 64% 0.0 mm 19 W/m2
20:26 21.8 °C 14.7 °C 1007.8 hPa NW 4.7 km/h 16.1 km/h 64% 0.0 mm 21 W/m2
20:31 21.7 °C 14.8 °C 1007.8 hPa WNW 3.2 km/h 4.8 km/h 65% 0.0 mm 51 W/m2
20:36 21.6 °C 14.5 °C 1008.1 hPa NW 3.2 km/h 9.7 km/h 64% 0.0 mm 28 W/m2
20:41 21.3 °C 14.5 °C 1008.1 hPa WNW 3.2 km/h 3.2 km/h 65% 0.0 mm 21 W/m2
20:46 21.2 °C 14.4 °C 1008.1 hPa Calm   4.8 km/h 65% 0.0 mm 21 W/m2
20:51 21.1 °C 14.5 °C 1008.1 hPa WSW 1.4 km/h 4.8 km/h 66% 0.0 mm 18 W/m2
20:56 21 °C 14.4 °C 1008.1 hPa WNW 3.2 km/h 4.8 km/h 66% 0.0 mm 12 W/m2
21:01 20.9 °C 14.3 °C 1008.5 hPa NW 1.4 km/h 1.6 km/h 66% 0.0 mm 11 W/m2
21:18 20.2 °C 13.9 °C 1008.5 hPa WNW 1.4 km/h 11.3 km/h 67% 0.0 mm 5 W/m2
21:23 19.9 °C 13.6 °C 1008.5 hPa West 3.2 km/h 8 km/h 67% 0.0 mm 0 W/m2
21:28 19.8 °C 12.8 °C 1008.5 hPa WSW 3.2 km/h 11.3 km/h 64% 0.0 mm 0 W/m2
21:33 19.7 °C 12.7 °C 1008.8 hPa SW 1.4 km/h 11.3 km/h 64% 0.0 mm 0 W/m2
21:38 19.6 °C 12.4 °C 1008.8 hPa WSW 3.2 km/h 9.7 km/h 63% 0.0 mm 0 W/m2
21:43 19.4 °C 12.2 °C 1008.8 hPa WSW 3.2 km/h 6.4 km/h 63% 0.0 mm 0 W/m2
21:48 19.4 °C 12.2 °C 1008.8 hPa West 3.2 km/h 6.4 km/h 63% 0.0 mm 0 W/m2
21:53 19.3 °C 12.3 °C 1009.1 hPa Calm   1.6 km/h 64% 0.0 mm 0 W/m2
21:58 19.1 °C 12.1 °C 1009.1 hPa Calm   3.2 km/h 64% 0.0 mm 0 W/m2
22:03 18.9 °C 12.2 °C 1009.1 hPa Calm   3.2 km/h 65% 0.0 mm 0 W/m2
22:08 18.8 °C 12.5 °C 1009.1 hPa Calm   1.6 km/h 67% 0.0 mm 0 W/m2
22:13 18.6 °C 12.4 °C 1009.1 hPa West 1.4 km/h 1.6 km/h 67% 0.0 mm 0 W/m2
22:18 18.3 °C 12.3 °C 1009.1 hPa Calm   1.6 km/h 68% 0.0 mm 0 W/m2
22:23 17.9 °C 12.1 °C 1009.1 hPa Calm   3.2 km/h 69% 0.0 mm 0 W/m2
22:28 17.8 °C 12.3 °C 1009.1 hPa Calm   1.6 km/h 70% 0.0 mm 0 W/m2
22:33 17.6 °C 12.3 °C 1009.1 hPa Calm   3.2 km/h 71% 0.0 mm 0 W/m2
22:50 17.1 °C 12 °C 1009.1 hPa Calm   1.6 km/h 72% 0.0 mm 0 W/m2
22:55 16.9 °C 11.6 °C 1009.1 hPa Calm   1.6 km/h 71% 0.0 mm 0 W/m2
23:00 16.9 °C 11.8 °C 1009.1 hPa WNW 1.4 km/h 1.6 km/h 72% 0.0 mm 0 W/m2
23:05 16.8 °C 11.9 °C 1009.1 hPa Calm   1.6 km/h 73% 0.0 mm 0 W/m2
23:23 16.6 °C 11.5 °C 1009.5 hPa Calm   1.6 km/h 72% 0.0 mm 0 W/m2
23:28 16.6 °C 11.5 °C 1009.5 hPa East 1.4 km/h 1.6 km/h 72% 0.0 mm 0 W/m2
23:33 16.7 °C 11.6 °C 1009.5 hPa East 1.4 km/h 3.2 km/h 72% 0.0 mm 0 W/m2
23:38 16.7 °C 11.6 °C 1009.5 hPa ESE 3.2 km/h 4.8 km/h 72% 0.0 mm 0 W/m2
23:43 16.7 °C 11.6 °C 1009.5 hPa SE 3.2 km/h 3.2 km/h 72% 0.0 mm 0 W/m2
23:48 16.8 °C 11.5 °C 1009.5 hPa Calm   3.2 km/h 71% 0.0 mm 0 W/m2
23:53 16.9 °C 11.4 °C 1009.5 hPa Calm   3.2 km/h 70% 0.0 mm 0 W/m2
23:58 16.9 °C 11.4 °C 1009.5 hPa Calm   1.6 km/h 70% 0.0 mm 0 W/m2
Juneau County Weather
Compliments of Weather Underground - 2 mb